ITY620 LIRF-KLAX
Flight info
| Callsign | ITY620 |
|---|---|
| Flight time | N/A |
| Altitude | 34000 |
| Route | NEMBO DCT ELB DCT NORNI DCT OTMUV DCT NEDED DCT ATMAD DCT GIGUS UP860 TIS DCT DIDRU DCT TUPAR DCT NTS DCT NORBU DCT GAPLI/N0487F360 DCT LIMRI/M085F360 DCT 53N020W 55N030W 56N040W 56N050W DCT JANJO/N0493F360 DCT DENSO/N0494F380 DCT AGLOL DCT MERNU DCT XEXUL DCT BLUOX/N0487F400 DCT RAP J158 DDY J107 NORRA J100 LAS Q70 HAILO DCT KOPLE BOGET2 |
| Aircraft | A359/H-SDE2E3GHIJ1J3J4J5LM1ORWXY/LB1D1 |
Departure
| Time | 2026-05-04 06:13 |
|---|---|
| Airport | Rome–Fiumicino Leonardo da Vinci International Airport (LIRF) |
Arrival
| Time | N/A |
|---|---|
| Airport | Los Angeles International Airport (KLAX) |
| Time | Latitude | Longitude | Altitude | Speed | Heading |
|---|---|---|---|---|---|
| 2026-05-04 05:37 | 41.79812 | 12.25340 | 23 ft | 0 kts | 295° |
| 2026-05-04 05:59 | 41.79809 | 12.25348 | 20 ft | 4 kts | 295° |
| 2026-05-04 05:59 | 41.79798 | 12.25379 | 21 ft | 4 kts | 308° |
| 2026-05-04 05:59 | 41.79785 | 12.25385 | 25 ft | 4 kts | 25° |
| 2026-05-04 05:59 | 41.79766 | 12.25372 | 24 ft | 4 kts | 25° |
| 2026-05-04 06:00 | 41.79744 | 12.25358 | 20 ft | 1 kts | 25° |
| 2026-05-04 06:00 | 41.79743 | 12.25358 | 20 ft | 0 kts | 25° |
| 2026-05-04 06:05 | 41.79994 | 12.25515 | 23 ft | 8 kts | 20° |
| 2026-05-04 06:05 | 41.80053 | 12.25453 | 24 ft | 6 kts | 295° |
| 2026-05-04 06:05 | 41.80073 | 12.25400 | 23 ft | 7 kts | 301° |
| 2026-05-04 06:06 | 41.80112 | 12.25364 | 22 ft | 7 kts | 339° |
| 2026-05-04 06:06 | 41.80148 | 12.25375 | 23 ft | 5 kts | 24° |
| 2026-05-04 06:06 | 41.80183 | 12.25396 | 21 ft | 6 kts | 23° |
| 2026-05-04 06:06 | 41.80218 | 12.25415 | 25 ft | 5 kts | 20° |
| 2026-05-04 06:07 | 41.80251 | 12.25431 | 25 ft | 5 kts | 20° |
| 2026-05-04 06:07 | 41.80282 | 12.25447 | 26 ft | 7 kts | 25° |
| 2026-05-04 06:07 | 41.80358 | 12.25615 | 24 ft | 27 kts | 70° |
| 2026-05-04 06:07 | 41.80419 | 12.25845 | 24 ft | 26 kts | 70° |
| 2026-05-04 06:08 | 41.80480 | 12.26066 | 23 ft | 25 kts | 69° |
| 2026-05-04 06:08 | 41.80537 | 12.26275 | 26 ft | 23 kts | 70° |
| 2026-05-04 06:08 | 41.80593 | 12.26477 | 23 ft | 23 kts | 69° |
| 2026-05-04 06:08 | 41.80648 | 12.26676 | 25 ft | 23 kts | 69° |
| 2026-05-04 06:09 | 41.80702 | 12.26875 | 23 ft | 23 kts | 69° |
| 2026-05-04 06:09 | 41.80760 | 12.27026 | 24 ft | 15 kts | 41° |
| 2026-05-04 06:11 | 41.80760 | 12.26206 | 31 ft | 109 kts | 249° |
| 2026-05-04 06:11 | 41.80417 | 12.24962 | 24 ft | 173 kts | 249° |
| 2026-05-04 06:13 | 41.79071 | 12.11587 | 2722 ft | 255 kts | 266° |
| 2026-05-04 06:14 | 41.79011 | 11.96818 | 6088 ft | 270 kts | 267° |
| 2026-05-04 06:14 | 41.79006 | 11.94296 | 6690 ft | 271 kts | 267° |
| 2026-05-04 06:15 | 41.78999 | 11.91757 | 7250 ft | 273 kts | 267° |
| 2026-05-04 06:15 | 41.78992 | 11.89200 | 7821 ft | 275 kts | 267° |
| 2026-05-04 06:15 | 41.78986 | 11.86625 | 8428 ft | 277 kts | 268° |
| 2026-05-04 06:15 | 41.79212 | 11.84048 | 9021 ft | 283 kts | 285° |
| 2026-05-04 06:16 | 41.80046 | 11.81648 | 9625 ft | 286 kts | 298° |
| 2026-05-04 06:16 | 41.81072 | 11.79348 | 10212 ft | 289 kts | 299° |
| 2026-05-04 06:16 | 41.82133 | 11.77005 | 10542 ft | 301 kts | 299° |
| 2026-05-04 06:16 | 41.83242 | 11.74534 | 10765 ft | 317 kts | 299° |
| 2026-05-04 06:17 | 41.84399 | 11.71940 | 10989 ft | 332 kts | 299° |
| 2026-05-04 06:17 | 41.85607 | 11.69219 | 11207 ft | 346 kts | 299° |
| 2026-05-04 06:17 | 41.86861 | 11.66390 | 11441 ft | 360 kts | 298° |
| 2026-05-04 06:17 | 41.88163 | 11.63441 | 11649 ft | 374 kts | 298° |
| 2026-05-04 06:18 | 41.89510 | 11.60391 | 11853 ft | 386 kts | 299° |
| 2026-05-04 06:18 | 41.90903 | 11.57266 | 12186 ft | 394 kts | 300° |
| 2026-05-04 06:18 | 41.92381 | 11.54140 | 12651 ft | 398 kts | 302° |
| 2026-05-04 06:20 | 42.03343 | 11.31710 | 15990 ft | 416 kts | 301° |
| 2026-05-04 06:20 | 42.04921 | 11.28428 | 16436 ft | 420 kts | 301° |
| 2026-05-04 06:21 | 42.11303 | 11.15117 | 18311 ft | 429 kts | 300° |
| 2026-05-04 06:21 | 42.12921 | 11.11735 | 18708 ft | 431 kts | 300° |
| 2026-05-04 06:22 | 42.14551 | 11.08325 | 19076 ft | 434 kts | 300° |
| 2026-05-04 06:22 | 42.16185 | 11.04902 | 19468 ft | 436 kts | 300° |
| 2026-05-04 06:25 | 42.42717 | 10.65881 | 20143 ft | 447 kts | 326° |
| 2026-05-04 06:25 | 42.45352 | 10.63651 | 20143 ft | 447 kts | 326° |
| 2026-05-04 06:26 | 42.47980 | 10.61409 | 20143 ft | 447 kts | 326° |
| 2026-05-04 06:26 | 42.50604 | 10.59152 | 20143 ft | 447 kts | 326° |
| 2026-05-04 06:26 | 42.53224 | 10.56887 | 20150 ft | 446 kts | 325° |
| 2026-05-04 06:26 | 42.55833 | 10.54622 | 20135 ft | 445 kts | 325° |
| 2026-05-04 06:27 | 42.66285 | 10.45513 | 21029 ft | 448 kts | 325° |
| 2026-05-04 06:28 | 42.68915 | 10.43216 | 21454 ft | 450 kts | 326° |
| 2026-05-04 06:28 | 42.71552 | 10.40911 | 21866 ft | 452 kts | 325° |
| 2026-05-04 06:28 | 42.74210 | 10.38596 | 22274 ft | 455 kts | 326° |
| 2026-05-04 06:28 | 42.76941 | 10.36402 | 22708 ft | 458 kts | 328° |
| 2026-05-04 06:29 | 42.79745 | 10.34307 | 23110 ft | 460 kts | 330° |
| 2026-05-04 06:29 | 42.82575 | 10.32251 | 23572 ft | 462 kts | 330° |
| 2026-05-04 06:29 | 42.85409 | 10.30191 | 23944 ft | 464 kts | 330° |
| 2026-05-04 06:29 | 42.88259 | 10.28099 | 24259 ft | 466 kts | 329° |
| 2026-05-04 06:30 | 42.90150 | 10.26695 | 24477 ft | 468 kts | 330° |
| 2026-05-04 06:30 | 42.93012 | 10.24553 | 24806 ft | 470 kts | 329° |
| 2026-05-04 06:30 | 42.95883 | 10.22386 | 25140 ft | 472 kts | 329° |
| 2026-05-04 06:30 | 42.98762 | 10.20204 | 25456 ft | 475 kts | 329° |
| 2026-05-04 06:31 | 43.01658 | 10.18002 | 25743 ft | 478 kts | 329° |
| 2026-05-04 06:31 | 43.04570 | 10.15788 | 26068 ft | 480 kts | 329° |
| 2026-05-04 06:31 | 43.07496 | 10.13560 | 26367 ft | 482 kts | 328° |
| 2026-05-04 06:31 | 43.11389 | 10.10595 | 26792 ft | 485 kts | 328° |
| 2026-05-04 06:32 | 43.13384 | 10.09073 | 27004 ft | 486 kts | 328° |
| 2026-05-04 06:33 | 43.33927 | 9.92034 | 28961 ft | 499 kts | 322° |
| 2026-05-04 06:34 | 43.36705 | 9.89285 | 29275 ft | 499 kts | 321° |
| 2026-05-04 06:34 | 43.39509 | 9.86488 | 29681 ft | 497 kts | 321° |
| 2026-05-04 06:34 | 43.42300 | 9.83695 | 30063 ft | 497 kts | 321° |
| 2026-05-04 06:34 | 43.45101 | 9.80889 | 30257 ft | 500 kts | 321° |
| 2026-05-04 06:35 | 43.47910 | 9.78075 | 30470 ft | 500 kts | 321° |
| 2026-05-04 06:36 | 43.67340 | 9.58586 | 32764 ft | 487 kts | 320° |
| 2026-05-04 06:37 | 43.70075 | 9.55830 | 33037 ft | 486 kts | 320° |
| 2026-05-04 06:37 | 43.72799 | 9.53081 | 33288 ft | 485 kts | 320° |
| 2026-05-04 06:37 | 43.75521 | 9.50331 | 33560 ft | 484 kts | 320° |
| 2026-05-04 06:37 | 43.78236 | 9.47585 | 33797 ft | 483 kts | 320° |
| 2026-05-04 06:38 | 43.80943 | 9.44844 | 34031 ft | 482 kts | 320° |
| 2026-05-04 06:38 | 43.83653 | 9.42096 | 34099 ft | 484 kts | 320° |
| 2026-05-04 06:40 | 44.05575 | 9.19761 | 34128 ft | 489 kts | 320° |
| 2026-05-04 06:40 | 44.11003 | 9.14199 | 34123 ft | 487 kts | 320° |
| 2026-05-04 06:41 | 44.16494 | 9.08552 | 34132 ft | 487 kts | 320° |
| 2026-05-04 06:41 | 44.21276 | 9.02088 | 34124 ft | 481 kts | 306° |
| 2026-05-04 06:42 | 44.25452 | 8.94809 | 34119 ft | 481 kts | 304° |
| 2026-05-04 06:44 | 44.41666 | 8.65204 | 34130 ft | 481 kts | 304° |
| 2026-05-04 06:44 | 44.45732 | 8.57763 | 34122 ft | 482 kts | 304° |
| 2026-05-04 06:45 | 44.49805 | 8.50294 | 34122 ft | 482 kts | 304° |
| 2026-05-04 06:45 | 44.53866 | 8.42823 | 34104 ft | 482 kts | 304° |
| 2026-05-04 06:46 | 44.57922 | 8.35340 | 34110 ft | 482 kts | 304° |
| 2026-05-04 06:46 | 44.61979 | 8.27837 | 34104 ft | 484 kts | 304° |
| 2026-05-04 06:48 | 44.77510 | 7.96959 | 34108 ft | 482 kts | 299° |
| 2026-05-04 06:50 | 44.92110 | 7.65411 | 34094 ft | 480 kts | 300° |
| 2026-05-04 06:51 | 44.95760 | 7.57521 | 34091 ft | 479 kts | 299° |
| 2026-05-04 06:51 | 44.99398 | 7.49627 | 34105 ft | 479 kts | 299° |
| 2026-05-04 06:52 | 45.03027 | 7.41730 | 34134 ft | 479 kts | 299° |
| 2026-05-04 06:52 | 45.06655 | 7.33812 | 34148 ft | 479 kts | 299° |
| 2026-05-04 06:53 | 45.10274 | 7.25899 | 34167 ft | 480 kts | 298° |
| 2026-05-04 06:53 | 45.13892 | 7.17963 | 34167 ft | 479 kts | 298° |
| 2026-05-04 06:54 | 45.17502 | 7.10022 | 34148 ft | 480 kts | 298° |
| 2026-05-04 06:54 | 45.21063 | 7.02102 | 34135 ft | 479 kts | 296° |
| 2026-05-04 06:55 | 45.23960 | 6.93664 | 34133 ft | 475 kts | 290° |
| 2026-05-04 06:55 | 45.26619 | 6.85067 | 34104 ft | 472 kts | 289° |
| 2026-05-04 06:57 | 45.36948 | 6.50935 | 34020 ft | 469 kts | 289° |
| 2026-05-04 06:58 | 45.39267 | 6.42289 | 34018 ft | 464 kts | 282° |
| 2026-05-04 06:58 | 45.40992 | 6.33444 | 34006 ft | 463 kts | 281° |
| 2026-05-04 06:59 | 45.42609 | 6.24577 | 34008 ft | 463 kts | 280° |
| 2026-05-04 06:59 | 45.44210 | 6.15690 | 34019 ft | 464 kts | 279° |
| 2026-05-04 07:01 | 45.50810 | 5.80036 | 34049 ft | 467 kts | 280° |
| 2026-05-04 07:02 | 45.52541 | 5.71093 | 34041 ft | 469 kts | 280° |
| 2026-05-04 07:02 | 45.54256 | 5.62116 | 34030 ft | 469 kts | 280° |
| 2026-05-04 07:03 | 45.55958 | 5.53134 | 34034 ft | 469 kts | 280° |
| 2026-05-04 07:03 | 45.57580 | 5.44126 | 34046 ft | 468 kts | 278° |
| 2026-05-04 07:04 | 45.59093 | 5.35063 | 34037 ft | 470 kts | 278° |
| 2026-05-04 07:04 | 45.60599 | 5.26033 | 34033 ft | 471 kts | 278° |
| 2026-05-04 07:05 | 45.62133 | 5.16942 | 34029 ft | 471 kts | 278° |
| 2026-05-04 07:05 | 45.63669 | 5.07852 | 34045 ft | 471 kts | 278° |
| 2026-05-04 07:06 | 45.65963 | 4.94165 | 34021 ft | 474 kts | 278° |
| 2026-05-04 07:07 | 45.67490 | 4.84995 | 34017 ft | 474 kts | 278° |
| 2026-05-04 07:09 | 45.73527 | 4.48277 | 34006 ft | 475 kts | 278° |
| 2026-05-04 07:09 | 45.75020 | 4.39064 | 34007 ft | 475 kts | 278° |
| 2026-05-04 07:10 | 45.76505 | 4.29852 | 34021 ft | 475 kts | 277° |
| 2026-05-04 07:12 | 45.82365 | 3.92974 | 34005 ft | 474 kts | 277° |
| 2026-05-04 07:12 | 45.83806 | 3.83740 | 33986 ft | 475 kts | 277° |
| 2026-05-04 07:13 | 45.85243 | 3.74492 | 33992 ft | 475 kts | 277° |
| 2026-05-04 07:13 | 45.86673 | 3.65242 | 33991 ft | 475 kts | 277° |
| 2026-05-04 07:14 | 45.89693 | 3.42101 | 33989 ft | 471 kts | 272° |
| 2026-05-04 07:15 | 45.90504 | 3.32770 | 33991 ft | 471 kts | 272° |
| 2026-05-04 07:15 | 45.91368 | 3.23444 | 33992 ft | 471 kts | 272° |
| 2026-05-04 07:16 | 45.92271 | 3.14116 | 34011 ft | 472 kts | 272° |
| 2026-05-04 07:16 | 45.93180 | 3.04774 | 33997 ft | 473 kts | 272° |
| 2026-05-04 07:17 | 45.94080 | 2.95419 | 33989 ft | 473 kts | 272° |
| 2026-05-04 07:17 | 45.94973 | 2.86052 | 33988 ft | 473 kts | 272° |
| 2026-05-04 07:18 | 45.95708 | 2.78266 | 33983 ft | 473 kts | 272° |
| 2026-05-04 07:18 | 45.96585 | 2.68890 | 33988 ft | 474 kts | 272° |
| 2026-05-04 07:19 | 45.97457 | 2.59487 | 33981 ft | 474 kts | 272° |
| 2026-05-04 07:19 | 45.98321 | 2.50093 | 33981 ft | 474 kts | 272° |
| 2026-05-04 07:20 | 45.99178 | 2.40687 | 33984 ft | 474 kts | 272° |
| 2026-05-04 07:20 | 46.00026 | 2.31290 | 33984 ft | 474 kts | 272° |
| 2026-05-04 07:22 | 46.03343 | 1.93617 | 33978 ft | 474 kts | 271° |
| 2026-05-04 07:23 | 46.04153 | 1.84204 | 33978 ft | 474 kts | 271° |
| 2026-05-04 07:23 | 46.04953 | 1.74792 | 33973 ft | 474 kts | 271° |
| 2026-05-04 07:24 | 46.05746 | 1.65379 | 33968 ft | 473 kts | 271° |
| 2026-05-04 07:24 | 46.06531 | 1.55975 | 33981 ft | 473 kts | 271° |
| 2026-05-04 07:26 | 46.09594 | 1.18317 | 33995 ft | 473 kts | 271° |
| 2026-05-04 07:27 | 46.10341 | 1.08868 | 33964 ft | 476 kts | 271° |
| 2026-05-04 07:27 | 46.11079 | 0.99453 | 33961 ft | 476 kts | 271° |
| 2026-05-04 07:28 | 46.11819 | 0.89915 | 33957 ft | 476 kts | 271° |
| 2026-05-04 07:28 | 46.12546 | 0.80426 | 33957 ft | 476 kts | 271° |
| 2026-05-04 07:29 | 46.13264 | 0.70958 | 33954 ft | 475 kts | 271° |
| 2026-05-04 07:29 | 46.13974 | 0.61502 | 33955 ft | 474 kts | 271° |
| 2026-05-04 07:30 | 46.14669 | 0.52122 | 33955 ft | 474 kts | 271° |
| 2026-05-04 07:30 | 46.15361 | 0.42676 | 33957 ft | 474 kts | 271° |
| 2026-05-04 07:31 | 46.16045 | 0.33232 | 33956 ft | 473 kts | 271° |
| 2026-05-04 07:33 | 46.19348 | 0.00315 | 33946 ft | 485 kts | 288° |
| 2026-05-04 07:33 | 46.20760 | -0.04126 | 33960 ft | 487 kts | 291° |
| 2026-05-04 07:33 | 46.23845 | -0.12867 | 33947 ft | 489 kts | 293° |
| 2026-05-04 07:34 | 46.27013 | -0.21553 | 33949 ft | 489 kts | 293° |
| 2026-05-04 07:34 | 46.30166 | -0.30280 | 33940 ft | 489 kts | 292° |
| 2026-05-04 07:35 | 46.33286 | -0.39017 | 33955 ft | 489 kts | 292° |
| 2026-05-04 07:35 | 46.36395 | -0.47775 | 33947 ft | 489 kts | 292° |
| 2026-05-04 07:36 | 46.39495 | -0.56537 | 33961 ft | 489 kts | 292° |
| 2026-05-04 07:38 | 46.55560 | -0.82520 | 33966 ft | 504 kts | 314° |
| 2026-05-04 07:38 | 46.58202 | -0.85867 | 33963 ft | 504 kts | 314° |
| 2026-05-04 07:38 | 46.63463 | -0.92577 | 33961 ft | 502 kts | 314° |
| 2026-05-04 07:39 | 46.68698 | -0.99316 | 33974 ft | 502 kts | 314° |
| 2026-05-04 07:39 | 46.73927 | -1.06081 | 33981 ft | 503 kts | 314° |
| 2026-05-04 07:40 | 46.79113 | -1.12808 | 33984 ft | 503 kts | 314° |
| 2026-05-04 07:40 | 46.84334 | -1.19596 | 33986 ft | 502 kts | 314° |
| 2026-05-04 07:41 | 46.89553 | -1.26399 | 33986 ft | 504 kts | 314° |
| 2026-05-04 07:41 | 46.94783 | -1.33237 | 33978 ft | 505 kts | 314° |
| 2026-05-04 07:42 | 47.00013 | -1.40089 | 33981 ft | 505 kts | 314° |
| 2026-05-04 07:42 | 47.05240 | -1.46958 | 33977 ft | 504 kts | 314° |
| 2026-05-04 07:43 | 47.10457 | -1.53833 | 33978 ft | 504 kts | 314° |
| 2026-05-04 07:43 | 47.15628 | -1.60784 | 33966 ft | 502 kts | 310° |
| 2026-05-04 07:44 | 47.20306 | -1.68373 | 33971 ft | 500 kts | 307° |
| 2026-05-04 07:44 | 47.24877 | -1.76094 | 33968 ft | 500 kts | 307° |
| 2026-05-04 07:45 | 47.29423 | -1.83856 | 33970 ft | 500 kts | 307° |
| 2026-05-04 07:45 | 47.33968 | -1.91622 | 33988 ft | 500 kts | 307° |
| 2026-05-04 07:46 | 47.38516 | -1.99402 | 33994 ft | 501 kts | 307° |
| 2026-05-04 07:46 | 47.43064 | -2.07196 | 33989 ft | 501 kts | 307° |
| 2026-05-04 07:47 | 47.47610 | -2.15011 | 33987 ft | 502 kts | 307° |
| 2026-05-04 07:49 | 47.65773 | -2.46471 | 33986 ft | 503 kts | 307° |
| 2026-05-04 07:49 | 47.70277 | -2.54328 | 34003 ft | 503 kts | 307° |
| 2026-05-04 07:50 | 47.74803 | -2.62245 | 33993 ft | 503 kts | 307° |
| 2026-05-04 07:50 | 47.79322 | -2.70179 | 33993 ft | 503 kts | 307° |
| 2026-05-04 07:51 | 47.83839 | -2.78130 | 33979 ft | 503 kts | 307° |
| 2026-05-04 07:51 | 47.88353 | -2.86098 | 33980 ft | 503 kts | 307° |
| 2026-05-04 07:52 | 47.92859 | -2.94075 | 33979 ft | 503 kts | 307° |
| 2026-05-04 07:52 | 47.97362 | -3.02071 | 33982 ft | 503 kts | 307° |
| 2026-05-04 07:54 | 48.15325 | -3.34210 | 33983 ft | 504 kts | 307° |
| 2026-05-04 07:55 | 48.19801 | -3.42280 | 34000 ft | 504 kts | 307° |
| 2026-05-04 07:55 | 48.24255 | -3.50335 | 33984 ft | 506 kts | 307° |
| 2026-05-04 07:56 | 48.28746 | -3.58479 | 33980 ft | 506 kts | 307° |
| 2026-05-04 07:56 | 48.33234 | -3.66641 | 33980 ft | 506 kts | 307° |
| 2026-05-04 07:57 | 48.37714 | -3.74813 | 33982 ft | 506 kts | 307° |
| 2026-05-04 07:57 | 48.42186 | -3.82999 | 33980 ft | 507 kts | 307° |
| 2026-05-04 07:58 | 48.46664 | -3.91219 | 33988 ft | 507 kts | 307° |
| 2026-05-04 07:58 | 48.51139 | -3.99459 | 33980 ft | 508 kts | 307° |
| 2026-05-04 07:59 | 48.55614 | -4.07726 | 33992 ft | 508 kts | 307° |
| 2026-05-04 07:59 | 48.60082 | -4.16004 | 33994 ft | 509 kts | 307° |
| 2026-05-04 08:00 | 48.64546 | -4.24302 | 33992 ft | 509 kts | 307° |
| 2026-05-04 08:02 | 48.80591 | -4.59273 | 33977 ft | 504 kts | 298° |
| 2026-05-04 08:02 | 48.84030 | -4.68543 | 33979 ft | 504 kts | 298° |
| 2026-05-04 08:03 | 48.87470 | -4.77821 | 33979 ft | 504 kts | 298° |
| 2026-05-04 08:03 | 48.90908 | -4.87102 | 33979 ft | 504 kts | 298° |
| 2026-05-04 08:04 | 48.94322 | -4.96336 | 33979 ft | 504 kts | 298° |
| 2026-05-04 08:04 | 48.97749 | -5.05640 | 33975 ft | 504 kts | 298° |
| 2026-05-04 08:05 | 49.00614 | -5.13445 | 33981 ft | 504 kts | 298° |
| 2026-05-04 08:05 | 49.04024 | -5.22765 | 33983 ft | 504 kts | 297° |
| 2026-05-04 08:06 | 49.07427 | -5.32103 | 33985 ft | 504 kts | 298° |
| 2026-05-04 08:06 | 49.10817 | -5.41438 | 33983 ft | 502 kts | 298° |
| 2026-05-04 08:08 | 49.24264 | -5.78787 | 33984 ft | 502 kts | 298° |
| 2026-05-04 08:11 | 49.39258 | -6.21082 | 33975 ft | 502 kts | 298° |
| 2026-05-04 08:11 | 49.44219 | -6.35233 | 33982 ft | 502 kts | 298° |
| 2026-05-04 08:12 | 49.47513 | -6.44669 | 33980 ft | 502 kts | 298° |
| 2026-05-04 08:12 | 49.50808 | -6.54142 | 33981 ft | 502 kts | 298° |
| 2026-05-04 08:13 | 49.54091 | -6.63616 | 33981 ft | 502 kts | 298° |
| 2026-05-04 08:13 | 49.57373 | -6.73126 | 33979 ft | 502 kts | 298° |
| 2026-05-04 08:14 | 49.60645 | -6.82640 | 33982 ft | 502 kts | 298° |
| 2026-05-04 08:16 | 49.73652 | -7.20815 | 33985 ft | 502 kts | 298° |
| 2026-05-04 08:16 | 49.76882 | -7.30389 | 33984 ft | 502 kts | 298° |
| 2026-05-04 08:17 | 49.80107 | -7.39979 | 33980 ft | 502 kts | 298° |
| 2026-05-04 08:17 | 49.83324 | -7.49581 | 33987 ft | 502 kts | 298° |
| 2026-05-04 08:19 | 49.96110 | -7.88119 | 33996 ft | 502 kts | 298° |
| 2026-05-04 08:20 | 49.99285 | -7.97777 | 33996 ft | 502 kts | 298° |
| 2026-05-04 08:20 | 50.02462 | -8.07451 | 33999 ft | 502 kts | 298° |
| 2026-05-04 08:21 | 50.05632 | -8.17130 | 34004 ft | 502 kts | 298° |
| 2026-05-04 08:21 | 50.08795 | -8.26827 | 34002 ft | 502 kts | 299° |
| 2026-05-04 08:22 | 50.11950 | -8.36536 | 33999 ft | 502 kts | 299° |
| 2026-05-04 08:24 | 50.24486 | -8.75489 | 34020 ft | 503 kts | 299° |
| 2026-05-04 08:24 | 50.26051 | -8.80395 | 34131 ft | 502 kts | 299° |
| 2026-05-04 08:24 | 50.27601 | -8.85265 | 34465 ft | 498 kts | 299° |
| 2026-05-04 08:25 | 50.29136 | -8.90100 | 34736 ft | 496 kts | 299° |
| 2026-05-04 08:25 | 50.30669 | -8.94934 | 34907 ft | 496 kts | 299° |
| 2026-05-04 08:25 | 50.32200 | -8.99773 | 35023 ft | 497 kts | 299° |
| 2026-05-04 08:25 | 50.33731 | -9.04618 | 35169 ft | 497 kts | 299° |
| 2026-05-04 08:26 | 50.35259 | -9.09465 | 35350 ft | 496 kts | 299° |
| 2026-05-04 08:27 | 50.45908 | -9.43503 | 36026 ft | 502 kts | 299° |
| 2026-05-04 08:28 | 50.48967 | -9.53371 | 36032 ft | 502 kts | 299° |
| 2026-05-04 08:28 | 50.52015 | -9.63251 | 36042 ft | 502 kts | 299° |
| 2026-05-04 08:29 | 50.55057 | -9.73143 | 36045 ft | 503 kts | 299° |
| 2026-05-04 08:31 | 50.67143 | -10.12841 | 36056 ft | 503 kts | 298° |
| 2026-05-04 08:33 | 50.79078 | -10.52697 | 36064 ft | 503 kts | 298° |
| 2026-05-04 08:35 | 50.90895 | -10.92821 | 36072 ft | 503 kts | 299° |
| 2026-05-04 08:35 | 50.93828 | -11.02882 | 36081 ft | 503 kts | 299° |
| 2026-05-04 08:37 | 51.04034 | -11.38237 | 36089 ft | 504 kts | 299° |
| 2026-05-04 08:38 | 51.06936 | -11.48385 | 36095 ft | 504 kts | 299° |
| 2026-05-04 08:38 | 51.09824 | -11.58525 | 36099 ft | 503 kts | 299° |
| 2026-05-04 08:40 | 51.21268 | -11.99151 | 36116 ft | 503 kts | 298° |
| 2026-05-04 08:41 | 51.24106 | -12.09340 | 36132 ft | 502 kts | 298° |
| 2026-05-04 08:41 | 51.26933 | -12.19530 | 36138 ft | 502 kts | 298° |
| 2026-05-04 08:42 | 51.29753 | -12.29737 | 36138 ft | 502 kts | 298° |
| 2026-05-04 08:42 | 51.32562 | -12.39949 | 36142 ft | 502 kts | 298° |
| 2026-05-04 08:43 | 51.35363 | -12.50180 | 36144 ft | 502 kts | 298° |
| 2026-05-04 08:43 | 51.38153 | -12.60416 | 36150 ft | 500 kts | 298° |
| 2026-05-04 08:44 | 51.40918 | -12.70605 | 36158 ft | 498 kts | 298° |
| 2026-05-04 08:46 | 51.51870 | -13.11399 | 36160 ft | 498 kts | 297° |
| 2026-05-04 08:46 | 51.54559 | -13.21530 | 36171 ft | 496 kts | 297° |
| 2026-05-04 08:47 | 51.57251 | -13.31716 | 36178 ft | 494 kts | 297° |
| 2026-05-04 08:47 | 51.59929 | -13.41892 | 36179 ft | 494 kts | 297° |
| 2026-05-04 08:48 | 51.62597 | -13.52076 | 36187 ft | 494 kts | 297° |
| 2026-05-04 08:48 | 51.65260 | -13.62288 | 36187 ft | 494 kts | 297° |
| 2026-05-04 08:49 | 51.67908 | -13.72490 | 36188 ft | 493 kts | 297° |
| 2026-05-04 08:50 | 51.77081 | -14.08186 | 36215 ft | 491 kts | 296° |
| 2026-05-04 08:51 | 51.79681 | -14.18406 | 36202 ft | 492 kts | 296° |
| 2026-05-04 08:51 | 51.82268 | -14.28624 | 36209 ft | 491 kts | 296° |
| 2026-05-04 08:52 | 51.84842 | -14.38839 | 36214 ft | 490 kts | 296° |
| 2026-05-04 08:52 | 51.86972 | -14.47326 | 36208 ft | 490 kts | 296° |
| 2026-05-04 08:54 | 51.97118 | -14.88198 | 36216 ft | 488 kts | 295° |
| 2026-05-04 08:55 | 51.99630 | -14.98434 | 36219 ft | 488 kts | 295° |
| 2026-05-04 08:55 | 52.02063 | -15.08720 | 36219 ft | 489 kts | 293° |
| 2026-05-04 09:01 | 52.25876 | -16.17695 | 36235 ft | 484 kts | 291° |
| 2026-05-04 09:01 | 52.28088 | -16.28079 | 36235 ft | 484 kts | 291° |
| 2026-05-04 09:02 | 52.30292 | -16.38483 | 36235 ft | 484 kts | 291° |
| 2026-05-04 09:02 | 52.32471 | -16.48820 | 36238 ft | 484 kts | 291° |
| 2026-05-04 09:03 | 52.34657 | -16.59241 | 36234 ft | 484 kts | 290° |
| 2026-05-04 09:03 | 52.36831 | -16.69663 | 36241 ft | 484 kts | 290° |
| 2026-05-04 09:04 | 52.39000 | -16.80111 | 36240 ft | 484 kts | 290° |
| 2026-05-04 09:04 | 52.41157 | -16.90560 | 36241 ft | 484 kts | 290° |
| 2026-05-04 09:05 | 52.43306 | -17.01020 | 36247 ft | 484 kts | 290° |
| 2026-05-04 09:05 | 52.45446 | -17.11496 | 36246 ft | 484 kts | 290° |
| 2026-05-04 09:06 | 52.47576 | -17.21975 | 36252 ft | 485 kts | 290° |
| 2026-05-04 09:08 | 52.55979 | -17.63881 | 36257 ft | 483 kts | 289° |
| 2026-05-04 09:08 | 52.58053 | -17.74370 | 36258 ft | 483 kts | 290° |
| 2026-05-04 09:09 | 52.60117 | -17.84859 | 36259 ft | 481 kts | 288° |
| 2026-05-04 09:09 | 52.62170 | -17.95346 | 36261 ft | 481 kts | 288° |
| 2026-05-04 09:10 | 52.64211 | -18.05826 | 36263 ft | 480 kts | 288° |
| 2026-05-04 09:10 | 52.66232 | -18.16269 | 36268 ft | 478 kts | 288° |
| 2026-05-04 09:11 | 52.68242 | -18.26707 | 36268 ft | 477 kts | 288° |
| 2026-05-04 09:11 | 52.70240 | -18.37138 | 36270 ft | 478 kts | 288° |
| 2026-05-04 09:12 | 52.72225 | -18.47567 | 36275 ft | 477 kts | 287° |
| 2026-05-04 09:14 | 52.80054 | -18.89250 | 36279 ft | 473 kts | 287° |
| 2026-05-04 09:14 | 52.81971 | -18.99601 | 36281 ft | 475 kts | 287° |
| 2026-05-04 09:15 | 52.83891 | -19.10025 | 36283 ft | 473 kts | 286° |
| 2026-05-04 09:15 | 52.85809 | -19.20495 | 36284 ft | 470 kts | 286° |
| 2026-05-04 09:17 | 52.94248 | -19.67319 | 36290 ft | 469 kts | 286° |
| 2026-05-04 09:18 | 52.96091 | -19.77700 | 36292 ft | 471 kts | 286° |
| 2026-05-04 09:18 | 52.97933 | -19.88139 | 36296 ft | 473 kts | 286° |
| 2026-05-04 09:19 | 52.99805 | -19.98609 | 36289 ft | 472 kts | 289° |
| 2026-05-04 09:19 | 53.02206 | -20.08733 | 36293 ft | 470 kts | 292° |
| 2026-05-04 09:20 | 53.04704 | -20.18718 | 36304 ft | 468 kts | 292° |
| 2026-05-04 09:20 | 53.07222 | -20.28729 | 36299 ft | 469 kts | 292° |
| 2026-05-04 09:21 | 53.09735 | -20.38778 | 36304 ft | 471 kts | 292° |
| 2026-05-04 09:21 | 53.12230 | -20.48831 | 36309 ft | 470 kts | 292° |
| 2026-05-04 09:22 | 53.14723 | -20.58932 | 36305 ft | 472 kts | 292° |
| 2026-05-04 09:22 | 53.17215 | -20.69080 | 36310 ft | 472 kts | 292° |
| 2026-05-04 09:23 | 53.19682 | -20.79166 | 36316 ft | 469 kts | 292° |
| 2026-05-04 09:23 | 53.22140 | -20.89261 | 36313 ft | 470 kts | 291° |
| 2026-05-04 09:25 | 53.31894 | -21.29628 | 36318 ft | 469 kts | 294° |
| 2026-05-04 09:26 | 53.34412 | -21.39733 | 36312 ft | 471 kts | 294° |
| 2026-05-04 09:26 | 53.36865 | -21.49870 | 36320 ft | 470 kts | 293° |
| 2026-05-04 09:27 | 53.39265 | -21.60026 | 36317 ft | 468 kts | 293° |
| 2026-05-04 09:27 | 53.41648 | -21.70206 | 36316 ft | 469 kts | 293° |
| 2026-05-04 09:28 | 53.44005 | -21.80316 | 36327 ft | 468 kts | 293° |
| 2026-05-04 09:28 | 53.46362 | -21.90466 | 36327 ft | 468 kts | 292° |
| 2026-05-04 09:29 | 53.48723 | -22.00679 | 36329 ft | 469 kts | 292° |
| 2026-05-04 09:29 | 53.51072 | -22.10885 | 36328 ft | 469 kts | 292° |
| 2026-05-04 09:30 | 53.53419 | -22.21135 | 36330 ft | 470 kts | 292° |
| 2026-05-04 09:30 | 53.55752 | -22.31375 | 36328 ft | 468 kts | 292° |
| 2026-05-04 09:31 | 53.58074 | -22.41614 | 36332 ft | 469 kts | 292° |
| 2026-05-04 09:31 | 53.60385 | -22.51856 | 36331 ft | 468 kts | 292° |
| 2026-05-04 09:32 | 53.62685 | -22.62097 | 36339 ft | 468 kts | 292° |
| 2026-05-04 09:34 | 53.71819 | -23.03270 | 36339 ft | 469 kts | 291° |
| 2026-05-04 09:34 | 53.74080 | -23.13593 | 36343 ft | 469 kts | 291° |
| 2026-05-04 09:35 | 53.76332 | -23.23921 | 36344 ft | 468 kts | 291° |
| 2026-05-04 09:35 | 53.78574 | -23.34261 | 36343 ft | 468 kts | 291° |
| 2026-05-04 09:37 | 53.87093 | -23.74023 | 36350 ft | 469 kts | 291° |
| 2026-05-04 09:38 | 53.89296 | -23.84430 | 36351 ft | 469 kts | 291° |
| 2026-05-04 09:38 | 53.91843 | -23.96532 | 36346 ft | 468 kts | 290° |
| 2026-05-04 09:39 | 53.93670 | -24.05259 | 36354 ft | 469 kts | 290° |
| 2026-05-04 09:39 | 53.95842 | -24.15686 | 36354 ft | 469 kts | 290° |
| 2026-05-04 09:40 | 53.98008 | -24.26136 | 36357 ft | 469 kts | 290° |
| 2026-05-04 09:40 | 54.00164 | -24.36591 | 36356 ft | 469 kts | 290° |
| 2026-05-04 09:42 | 54.08661 | -24.78351 | 36360 ft | 466 kts | 290° |
| 2026-05-04 09:43 | 54.10757 | -24.88789 | 36366 ft | 466 kts | 290° |
| 2026-05-04 09:43 | 54.12843 | -24.99229 | 36362 ft | 465 kts | 290° |
| 2026-05-04 09:44 | 54.14920 | -25.09684 | 36362 ft | 466 kts | 290° |
| 2026-05-04 09:46 | 54.23061 | -25.51209 | 36368 ft | 460 kts | 290° |
| 2026-05-04 09:46 | 54.25071 | -25.61599 | 36368 ft | 460 kts | 290° |
| 2026-05-04 09:47 | 54.27071 | -25.71996 | 36373 ft | 460 kts | 290° |
| 2026-05-04 09:49 | 54.34966 | -26.13600 | 36371 ft | 458 kts | 289° |
| 2026-05-04 09:51 | 54.41743 | -26.50060 | 36375 ft | 458 kts | 289° |
| 2026-05-04 09:51 | 54.43658 | -26.60491 | 36368 ft | 458 kts | 289° |
| 2026-05-04 09:52 | 54.45565 | -26.70938 | 36373 ft | 458 kts | 289° |
| 2026-05-04 09:52 | 54.47459 | -26.81378 | 36371 ft | 458 kts | 289° |
| 2026-05-04 09:53 | 54.49346 | -26.91832 | 36373 ft | 458 kts | 289° |
| 2026-05-04 09:53 | 54.51223 | -27.02295 | 36373 ft | 458 kts | 288° |
| 2026-05-04 09:54 | 54.53080 | -27.12702 | 36370 ft | 458 kts | 288° |
| 2026-05-04 09:54 | 54.54939 | -27.23185 | 36377 ft | 458 kts | 288° |
| 2026-05-04 09:55 | 54.56789 | -27.33674 | 36364 ft | 458 kts | 288° |
| 2026-05-04 09:55 | 54.58630 | -27.44170 | 36374 ft | 457 kts | 288° |
| 2026-05-04 09:56 | 54.60474 | -27.54751 | 36376 ft | 457 kts | 288° |
| 2026-05-04 09:56 | 54.62283 | -27.65193 | 36373 ft | 457 kts | 288° |
| 2026-05-04 09:57 | 54.64107 | -27.75781 | 36373 ft | 457 kts | 288° |
| 2026-05-04 09:57 | 54.65898 | -27.86244 | 36376 ft | 457 kts | 288° |
| 2026-05-04 09:58 | 54.67693 | -27.96787 | 36374 ft | 458 kts | 287° |
| 2026-05-04 09:58 | 54.69480 | -28.07346 | 36374 ft | 458 kts | 287° |
| 2026-05-04 10:00 | 54.76536 | -28.49685 | 36374 ft | 458 kts | 287° |
| 2026-05-04 10:04 | 54.88533 | -29.24163 | 36369 ft | 458 kts | 286° |
| 2026-05-04 10:04 | 54.90211 | -29.34845 | 36368 ft | 459 kts | 286° |
| 2026-05-04 10:05 | 54.91884 | -29.45565 | 36367 ft | 460 kts | 286° |
| 2026-05-04 10:05 | 54.93548 | -29.56303 | 36366 ft | 460 kts | 286° |
| 2026-05-04 10:06 | 54.95201 | -29.67034 | 36368 ft | 460 kts | 285° |
| 2026-05-04 10:06 | 54.96845 | -29.77779 | 36372 ft | 459 kts | 285° |
| 2026-05-04 10:08 | 55.02452 | -30.15458 | 36364 ft | 459 kts | 284° |
| 2026-05-04 10:08 | 55.03973 | -30.26261 | 36372 ft | 459 kts | 284° |
| 2026-05-04 10:09 | 55.05482 | -30.37000 | 36368 ft | 459 kts | 284° |
| 2026-05-04 10:09 | 55.07010 | -30.47897 | 36369 ft | 459 kts | 284° |
| 2026-05-04 10:10 | 55.08508 | -30.58646 | 36369 ft | 459 kts | 284° |
| 2026-05-04 10:10 | 55.10007 | -30.69483 | 36374 ft | 459 kts | 284° |
| 2026-05-04 10:11 | 55.11498 | -30.80345 | 36368 ft | 460 kts | 284° |
| 2026-05-04 10:11 | 55.12982 | -30.91229 | 36370 ft | 461 kts | 284° |
| 2026-05-04 10:12 | 55.14455 | -31.02109 | 36369 ft | 460 kts | 284° |
| 2026-05-04 10:12 | 55.15921 | -31.13019 | 36368 ft | 460 kts | 284° |
| 2026-05-04 10:13 | 55.17374 | -31.23917 | 36371 ft | 460 kts | 284° |
| 2026-05-04 10:13 | 55.18818 | -31.34825 | 36369 ft | 460 kts | 283° |
| 2026-05-04 10:14 | 55.20252 | -31.45741 | 36374 ft | 461 kts | 283° |
| 2026-05-04 10:16 | 55.25912 | -31.89656 | 36368 ft | 462 kts | 283° |
| 2026-05-04 10:16 | 55.27301 | -32.00647 | 36367 ft | 462 kts | 283° |
| 2026-05-04 10:17 | 55.28680 | -32.11641 | 36374 ft | 462 kts | 283° |
| 2026-05-04 10:19 | 55.34118 | -32.55864 | 36374 ft | 464 kts | 283° |
| 2026-05-04 10:19 | 55.35454 | -32.66950 | 36374 ft | 464 kts | 283° |
| 2026-05-04 10:20 | 55.36779 | -32.78037 | 36374 ft | 463 kts | 283° |
| 2026-05-04 10:20 | 55.38094 | -32.89130 | 36382 ft | 464 kts | 283° |
| 2026-05-04 10:21 | 55.39403 | -33.00265 | 36376 ft | 466 kts | 283° |
| 2026-05-04 10:21 | 55.40704 | -33.11430 | 36371 ft | 466 kts | 282° |
| 2026-05-04 10:22 | 55.42420 | -33.26298 | 36375 ft | 466 kts | 282° |
| 2026-05-04 10:23 | 55.43698 | -33.37478 | 36372 ft | 466 kts | 282° |
| 2026-05-04 10:25 | 55.48712 | -33.82330 | 36365 ft | 468 kts | 282° |
| 2026-05-04 10:25 | 55.49943 | -33.93593 | 36376 ft | 468 kts | 282° |
| 2026-05-04 10:26 | 55.51164 | -34.04862 | 36379 ft | 468 kts | 282° |
| 2026-05-04 10:26 | 55.52375 | -34.16141 | 36371 ft | 468 kts | 282° |
| 2026-05-04 10:27 | 55.53576 | -34.27430 | 36376 ft | 468 kts | 282° |
| 2026-05-04 10:27 | 55.54765 | -34.38715 | 36373 ft | 468 kts | 282° |
| 2026-05-04 10:28 | 55.55947 | -34.50039 | 36373 ft | 469 kts | 282° |